Time;durP1;ratioP1;P1;durP2;ratioP2;P2;SDS_P1;SDS_P2;PMS_P1;PMS_P2;Temp;Humidity;BMP_temperature;BMP_pressure;BME280_temperature;BME280_humidity;BME280_pressure;Samples;Min_cycle;Max_cycle;Signal;HPM_P1;HPM_P2
2021/01/26 10:58:34;;;;;;;11.23;3.55;;;20.10;37.70;;;23.69;26.01;100954.19;6244011;22;20027;-79
2021/01/26 11:01:01;;;;;;;11.03;3.07;;;20.20;37.80;;;23.75;26.14;100956.41;6217506;22;20009;-81
2021/01/26 11:03:26;;;;;;;10.20;3.20;;;20.20;37.80;;;23.77;26.05;100956.28;6190628;23;20248;-80
2021/01/26 11:05:52;;;;;;;7.72;2.60;;;20.20;37.80;;;23.78;26.04;100960.69;6165589;23;20016;-80
2021/01/26 11:08:18;;;;;;;12.07;3.20;;;20.20;37.80;;;23.82;26.00;100954.19;6217533;22;20009;-80
2021/01/26 11:10:44;;;;;;;10.48;2.80;;;20.20;38.40;;;23.82;26.03;100963.06;6165613;23;20099;-80
2021/01/26 11:13:10;;;;;;;9.55;3.30;;;20.20;37.70;;;23.88;26.03;100961.75;6217217;22;20012;-80
2021/01/26 11:15:36;;;;;;;5.10;2.90;;;20.30;37.80;;;23.91;25.94;100961.53;6166095;23;20138;-80
2021/01/26 11:18:03;;;;;;;9.13;2.65;;;20.30;37.70;;;23.92;25.93;100971.22;6145658;23;20008;-81
2021/01/26 11:20:29;;;;;;;14.93;3.72;;;20.30;37.90;;;23.90;25.96;100967.81;6214341;23;20500;-80
2021/01/26 11:22:54;;;;;;;13.25;3.35;;;20.20;37.90;;;23.94;26.07;100974.66;6190848;23;20004;-80
2021/01/26 11:25:24;;;;;;;9.48;2.60;;;20.20;37.90;;;23.91;25.89;100977.56;6165467;23;20327;-80
2021/01/26 11:27:53;;;;;;;8.95;3.08;;;20.20;38.00;;;23.95;25.80;100978.19;6196000;23;20008;-80
2021/01/26 11:30:24;;;;;;;8.77;2.53;;;20.30;38.00;;;23.95;26.16;100986.19;6190369;22;20007;-80
2021/01/26 11:32:52;;;;;;;;;;;20.20;37.90;;;24.03;25.79;100979.31;6200908;22;20434;-80
2021/01/26 11:35:23;;;;;;;6.97;3.00;;;20.20;37.90;;;23.95;25.81;100973.69;6251079;22;19911;-81
2021/01/26 11:37:52;;;;;;;10.98;3.13;;;20.20;38.00;;;23.95;25.98;100976.34;6226053;22;20012;-81
2021/01/26 11:40:19;;;;;;;10.07;3.03;;;20.20;38.00;;;23.93;25.90;100980.13;6218984;22;20448;-80
2021/01/26 11:42:45;;;;;;;7.82;3.05;;;20.20;38.10;;;23.93;25.98;100982.78;6225513;22;20012;-81
2021/01/26 11:45:15;;;;;;;11.82;2.50;;;20.20;38.10;;;23.88;25.99;100991.13;6218591;22;20077;-81
2021/01/26 11:47:41;;;;;;;8.25;2.70;;;20.20;38.10;;;23.93;25.96;100988.97;6244477;22;20011;-81
2021/01/26 11:50:11;;;;;;;6.60;2.70;;;20.20;38.10;;;23.91;26.20;100990.91;6250179;22;20400;-80
2021/01/26 11:52:38;;;;;;;12.70;3.13;;;20.10;38.00;;;23.90;26.07;100991.00;6200309;22;20011;-81
2021/01/26 11:55:09;;;;;;;11.40;3.30;;;20.10;38.00;;;23.88;25.93;100993.78;6224732;22;20501;-81
2021/01/26 11:57:35;;;;;;;;;;;20.10;38.10;;;24.01;26.01;100997.28;6250759;22;20007;-81
2021/01/26 12:00:01;;;;;;;5.80;2.78;;;20.10;38.10;;;23.91;25.89;100984.72;6245292;23;19923;-81
2021/01/26 12:02:26;;;;;;;13.27;3.10;;;20.10;38.10;;;23.91;25.72;100984.72;6272162;22;20036;-82
2021/01/26 12:04:52;;;;;;;14.43;2.80;;;20.10;38.10;;;23.90;25.96;100983.84;6277120;22;20038;-81
2021/01/26 12:07:18;;;;;;;6.95;2.97;;;20.10;38.10;;;23.86;26.06;100977.03;6277673;22;20379;-80
2021/01/26 12:09:44;;;;;;;10.15;2.92;;;20.10;38.20;;;23.87;25.99;100981.41;6250344;22;20008;-81
2021/01/26 12:12:10;;;;;;;5.78;3.03;;;20.10;38.10;;;23.89;26.20;100991.97;6247519;22;20093;-80
2021/01/26 12:14:35;;;;;;;6.32;2.47;;;20.10;38.20;;;23.87;26.06;100989.41;6250285;22;20007;-80
2021/01/26 12:17:02;;;;;;;7.65;2.67;;;20.10;38.20;;;23.84;26.07;100977.16;6220378;23;20046;-81
2021/01/26 12:19:28;;;;;;;8.80;2.83;;;20.10;38.30;;;23.87;26.04;100984.06;6244964;23;20019;-80
2021/01/26 12:21:55;;;;;;;12.55;2.95;;;20.10;38.20;;;23.84;26.01;100985.16;6220003;23;20079;-81
2021/01/26 12:24:22;;;;;;;9.57;3.03;;;20.10;38.20;;;23.85;26.12;100978.00;6270896;22;20016;-81
2021/01/26 12:26:48;;;;;;;14.70;3.08;;;20.10;38.20;;;23.89;25.99;100983.97;6219823;23;20082;-81
2021/01/26 12:29:13;;;;;;;8.57;2.97;;;20.10;38.10;;;23.89;26.03;100984.84;6219826;23;20016;-82
2021/01/26 12:31:39;;;;;;;7.80;2.70;;;20.20;38.20;;;23.85;26.10;100973.50;6245070;23;20338;-81
2021/01/26 12:34:05;;;;;;;7.93;2.90;;;20.20;38.20;;;23.91;26.04;100987.41;6270739;22;20015;-81
2021/01/26 12:36:31;;;;;;;7.40;2.85;;;20.20;38.20;;;23.90;26.02;100981.19;6220190;23;20087;-81
2021/01/26 12:38:57;;;;;;;10.55;2.90;;;20.20;38.00;;;23.92;25.98;100981.06;6242117;23;20066;-81
2021/01/26 12:41:23;;;;;;;10.57;3.00;;;20.20;38.20;;;23.93;26.16;100980.13;6220776;23;20106;-81
2021/01/26 12:43:48;;;;;;;7.88;3.10;;;20.20;38.20;;;23.94;26.18;100982.69;6219786;23;20011;-81
2021/01/26 12:46:14;;;;;;;8.88;2.60;;;20.20;38.10;;;23.95;26.11;100978.19;6220326;23;20090;-81
2021/01/26 12:48:40;;;;;;;8.23;3.67;;;20.30;38.10;;;23.96;26.03;100980.75;6220045;23;20012;-81
2021/01/26 12:51:06;;;;;;;6.95;2.47;;;20.30;38.00;;;24.01;26.03;100988.44;6245115;23;20038;-80
2021/01/26 12:53:31;;;;;;;8.50;2.53;;;20.30;38.00;;;24.04;25.95;100985.53;6246634;23;20012;-81
2021/01/26 12:55:57;;;;;;;9.45;2.65;;;20.40;38.00;;;24.12;26.24;100984.97;6245443;23;20012;-81
2021/01/26 12:58:23;;;;;;;8.68;3.10;;;20.50;37.80;;;24.14;26.11;100980.34;6245655;23;20012;-81
2021/01/26 13:00:49;;;;;;;7.97;2.78;;;20.50;37.90;;;24.16;25.93;100979.28;6194191;23;20088;-81
2021/01/26 13:03:14;;;;;;;6.05;2.67;;;20.40;37.90;;;24.20;26.11;100978.06;6270596;22;20012;-81
2021/01/26 13:05:40;;;;;;;8.95;3.45;;;20.40;37.90;;;24.20;26.01;100980.75;6245018;23;20012;-81
2021/01/26 13:08:06;;;;;;;7.15;2.50;;;20.40;37.90;;;24.19;25.98;100984.41;6244685;23;20015;-80
2021/01/26 13:10:33;;;;;;;9.40;2.80;;;20.40;38.00;;;24.21;25.80;100990.47;6246670;23;20020;-81
2021/01/26 13:12:59;;;;;;;8.55;2.80;;;20.40;38.10;;;24.17;25.79;100981.00;6220686;22;20018;-80
2021/01/26 13:15:25;;;;;;;10.88;3.42;;;20.30;38.00;;;24.16;25.77;100981.09;6216335;23;20015;-81
2021/01/26 13:17:53;;;;;;;11.25;2.90;;;20.30;38.20;;;24.13;25.88;100981.34;6270061;22;20012;-81
2021/01/26 13:20:20;;;;;;;10.43;3.20;;;20.30;38.10;;;24.12;26.09;100975.13;6244446;23;20015;-81
2021/01/26 13:22:46;;;;;;;8.23;3.40;;;20.30;38.10;;;24.14;25.94;100986.56;6194297;23;20008;-81
2021/01/26 13:25:23;;;;;;;8.77;3.03;;;20.30;38.20;;;24.09;25.96;100982.50;6270131;22;20446;-81
2021/01/26 13:27:53;;;;;;;10.27;2.92;;;20.30;38.20;;;24.13;26.02;100984.84;6247869;22;20008;-81
2021/01/26 13:30:21;;;;;;;10.00;3.47;;;20.30;38.20;;;24.12;26.02;100990.28;6244604;22;20016;-82
2021/01/26 13:32:49;;;;;;;12.63;3.08;;;20.30;38.10;;;24.11;25.82;100989.47;6269736;22;20031;-81
2021/01/26 13:35:23;;;;;;;7.90;3.00;;;20.30;38.10;;;24.09;25.88;100979.84;6269851;22;20338;-81
2021/01/26 13:37:51;;;;;;;10.38;3.35;;;20.30;38.20;;;24.09;25.92;100991.41;6219058;23;20012;-81
2021/01/26 13:40:19;;;;;;;9.88;2.80;;;20.20;38.30;;;24.05;25.89;100998.75;6244597;23;20453;-81
2021/01/26 13:42:48;;;;;;;7.40;3.00;;;20.20;38.40;;;23.99;25.81;100993.00;6219791;23;20070;-81
2021/01/26 13:45:18;;;;;;;8.95;3.42;;;20.10;38.40;;;24.01;25.93;101005.28;6244485;23;20070;-81
2021/01/26 13:47:47;;;;;;;9.80;2.97;;;20.10;38.50;;;23.99;26.00;101022.38;6219625;23;20008;-81
2021/01/26 13:50:17;;;;;;;9.82;2.85;;;20.10;38.50;;;23.93;25.89;101022.84;6244259;23;20017;-81
2021/01/26 13:52:43;;;;;;;7.40;2.50;;;20.10;38.60;;;23.92;26.09;101021.97;6270114;22;20023;-81
2021/01/26 13:55:10;;;;;;;9.05;2.88;;;20.10;38.60;;;23.91;26.13;101033.63;6218743;23;20016;-81
2021/01/26 13:57:37;;;;;;;9.77;3.05;;;20.10;38.60;;;23.90;26.20;101028.41;6244206;23;20126;-82
2021/01/26 14:00:09;;;;;;;5.90;2.53;;;20.00;38.60;;;23.85;26.15;101018.88;6219256;23;20043;-81
2021/01/26 14:02:38;;;;;;;8.25;2.67;;;20.00;38.60;;;23.85;26.21;101018.03;6219727;23;20339;-81
2021/01/26 14:05:06;;;;;;;6.53;2.67;;;20.10;38.60;;;23.83;26.18;101004.81;6218795;23;20012;-81
2021/01/26 14:07:32;;;;;;;12.88;2.85;;;20.20;38.40;;;23.93;26.03;101012.16;6218822;23;20048;-81
2021/01/26 14:09:58;;;;;;;6.40;2.80;;;20.40;38.10;;;23.96;26.01;101004.78;6218892;23;20012;-81
2021/01/26 14:12:24;;;;;;;9.20;3.05;;;20.30;38.10;;;23.97;26.14;101014.50;6244134;23;20023;-82
2021/01/26 14:14:50;;;;;;;8.95;2.83;;;20.30;38.20;;;23.94;26.00;101006.72;6218873;23;20450;-81
2021/01/26 14:17:16;;;;;;;12.95;3.28;;;20.30;38.20;;;23.94;26.08;101016.53;6244265;23;20063;-81
2021/01/26 14:19:42;;;;;;;11.45;3.00;;;20.20;38.00;;;23.93;26.13;101017.50;6219781;23;20023;-82
2021/01/26 14:22:08;;;;;;;13.25;3.20;;;20.20;38.00;;;23.92;25.79;101015.78;6246224;23;20012;-82
2021/01/26 14:24:34;;;;;;;14.40;2.80;;;20.30;37.40;;;23.95;25.79;101020.91;6196000;23;20012;-82
2021/01/26 14:27:00;;;;;;;5.00;2.38;;;20.30;37.60;;;24.00;25.98;101030.28;6220928;23;20042;-82
2021/01/26 14:29:28;;;;;;;9.38;2.92;;;20.30;37.90;;;24.08;25.88;101026.22;6271720;22;20123;-83
2021/01/26 14:31:54;;;;;;;6.88;3.15;;;20.50;37.70;;;24.16;25.90;101026.53;6220818;23;20553;-82
2021/01/26 14:34:20;;;;;;;10.65;2.83;;;20.70;37.50;;;24.26;25.84;101034.69;6220799;23;20086;-82
2021/01/26 14:36:46;;;;;;;8.70;3.20;;;20.80;37.20;;;24.34;25.66;101029.63;6271545;22;20024;-81
2021/01/26 14:39:12;;;;;;;6.88;2.55;;;21.00;37.00;;;24.44;25.69;101032.50;6195637;23;20023;-81
2021/01/26 14:41:38;;;;;;;10.65;2.78;;;21.10;36.90;;;24.52;25.74;101048.81;6220626;23;20016;-81
2021/01/26 14:44:05;;;;;;;9.38;2.80;;;21.20;36.80;;;24.60;25.60;101054.47;6220530;23;20020;-81
2021/01/26 14:46:31;;;;;;;9.90;2.70;;;21.20;36.80;;;24.68;25.62;101067.28;6220734;23;20016;-81
